Terminal Aerodrome Forecast
Issued by NWS Oklahoma City, OK

Home | Current Version | Previous Version | Text Only | Print | Product List | Glossary On
Versions: 1 2 3 4 5 6 7 8 9 10 11 12 13 14 15 16 17 18 19 20 21 22 23 24 25 26 27 28 29 30 31 32 33 34
000
FTUS44 KOUN 041738
TAFOUN
TAF
KOUN 041738Z 0418/0518 02020G30KT 5SM -FZRA OVC015
     FM042300 01019G27KT 3SM BR OVC010
      TEMPO 0423/0501 1SM -FZRAPL OVC009
     FM050100 01020KT 1SM -SN BR OVC010
     FM050600 02010KT 5SM BR OVC020 PROB30 0506/0510 3SM -SN OVC010
     FM051500 03004KT P6SM SCT020=

USA.gov is the U.S. government's official web portal to all federal, state and local government web resources and services.